Terminal Aerodrome Forecast
Issued by NWS

Home | Current Version | Previous Version | Text Only | Print | Product List | Glossary On
Versions: 1 2 3 4 5 6 7 8 9 10 11 12 13 14 15 16
000
FTUS45 KTFX 031700
TAFGTF
TAF
KGTF 031739Z 0318/0418 23008KT P6SM FEW020
     FM032000 27008KT P6SM SKC
     FM040400 24007KT P6SM BKN070
     FM040900 21008KT P6SM SKC=

USA.gov is the U.S. government's official web portal to all federal, state and local government web resources and services.